sensor_id;sensor_type;location;lat;lon;timestamp;temperature;humidity
9662;DHT22;24982;52.344;12.990;2022-11-15T00:02:34;6.80;99.90
9662;DHT22;24982;52.344;12.990;2022-11-15T00:06:01;6.80;99.90
9662;DHT22;24982;52.344;12.990;2022-11-15T00:09:21;6.70;99.90
9662;DHT22;24982;52.344;12.990;2022-11-15T00:12:43;6.70;99.90
9662;DHT22;24982;52.344;12.990;2022-11-15T00:16:04;6.70;99.90
9662;DHT22;24982;52.344;12.990;2022-11-15T00:19:25;6.70;99.90
9662;DHT22;24982;52.344;12.990;2022-11-15T00:22:45;6.70;99.90
9662;DHT22;24982;52.344;12.990;2022-11-15T00:26:07;6.60;99.90
9662;DHT22;24982;52.344;12.990;2022-11-15T00:29:32;6.60;99.90
9662;DHT22;24982;52.344;12.990;2022-11-15T00:32:52;6.60;99.90
9662;DHT22;24982;52.344;12.990;2022-11-15T00:36:13;6.60;99.90
9662;DHT22;24982;52.344;12.990;2022-11-15T00:39:33;6.60;99.90
9662;DHT22;24982;52.344;12.990;2022-11-15T00:42:54;6.60;99.90
9662;DHT22;24982;52.344;12.990;2022-11-15T00:46:16;6.60;99.90
9662;DHT22;24982;52.344;12.990;2022-11-15T00:49:36;6.60;99.90
9662;DHT22;24982;52.344;12.990;2022-11-15T00:52:56;6.60;99.90
9662;DHT22;24982;52.344;12.990;2022-11-15T00:56:17;6.60;99.90
9662;DHT22;24982;52.344;12.990;2022-11-15T00:59:38;6.60;99.90
9662;DHT22;24982;52.344;12.990;2022-11-15T01:03:00;6.60;99.90
9662;DHT22;24982;52.344;12.990;2022-11-15T01:06:21;6.50;99.90
9662;DHT22;24982;52.344;12.990;2022-11-15T01:09:41;6.40;99.90
9662;DHT22;24982;52.344;12.990;2022-11-15T01:13:02;6.40;99.90
9662;DHT22;24982;52.344;12.990;2022-11-15T01:16:22;6.40;99.90
9662;DHT22;24982;52.344;12.990;2022-11-15T01:19:44;6.40;99.90
9662;DHT22;24982;52.344;12.990;2022-11-15T01:23:04;6.50;99.90
9662;DHT22;24982;52.344;12.990;2022-11-15T01:26:25;6.40;99.90
9662;DHT22;24982;52.344;12.990;2022-11-15T01:29:46;6.40;99.90
9662;DHT22;24982;52.344;12.990;2022-11-15T01:33:06;6.40;99.90
9662;DHT22;24982;52.344;12.990;2022-11-15T01:36:28;6.40;99.90
9662;DHT22;24982;52.344;12.990;2022-11-15T01:39:48;6.40;99.90
9662;DHT22;24982;52.344;12.990;2022-11-15T01:43:20;6.40;99.90
9662;DHT22;24982;52.344;12.990;2022-11-15T01:46:45;6.40;99.90
9662;DHT22;24982;52.344;12.990;2022-11-15T01:50:10;6.40;99.90
9662;DHT22;24982;52.344;12.990;2022-11-15T01:53:34;6.40;99.90
9662;DHT22;24982;52.344;12.990;2022-11-15T01:56:58;6.40;99.90
9662;DHT22;24982;52.344;12.990;2022-11-15T02:00:20;6.40;99.90
9662;DHT22;24982;52.344;12.990;2022-11-15T02:03:45;6.40;99.90
9662;DHT22;24982;52.344;12.990;2022-11-15T02:07:09;6.50;99.90
9662;DHT22;24982;52.344;12.990;2022-11-15T02:10:32;6.50;99.90
9662;DHT22;24982;52.344;12.990;2022-11-15T02:13:53;6.50;99.90
9662;DHT22;24982;52.344;12.990;2022-11-15T02:17:31;6.50;99.90
9662;DHT22;24982;52.344;12.990;2022-11-15T02:21:11;6.50;99.90
9662;DHT22;24982;52.344;12.990;2022-11-15T02:25:03;6.50;99.90
9662;DHT22;24982;52.344;12.990;2022-11-15T02:28:41;7.10;99.90
9662;DHT22;24982;52.344;12.990;2022-11-15T02:32:09;6.50;99.90
9662;DHT22;24982;52.344;12.990;2022-11-15T02:35:37;6.50;99.90
9662;DHT22;24982;52.344;12.990;2022-11-15T02:39:09;6.40;99.90
9662;DHT22;24982;52.344;12.990;2022-11-15T02:42:35;6.40;99.90
9662;DHT22;24982;52.344;12.990;2022-11-15T02:46:17;6.30;99.90
9662;DHT22;24982;52.344;12.990;2022-11-15T02:49:41;6.20;99.90
9662;DHT22;24982;52.344;12.990;2022-11-15T02:53:03;6.20;99.90
9662;DHT22;24982;52.344;12.990;2022-11-15T02:56:24;6.20;99.90
9662;DHT22;24982;52.344;12.990;2022-11-15T03:00:06;6.30;99.90
9662;DHT22;24982;52.344;12.990;2022-11-15T03:03:46;6.30;99.90
9662;DHT22;24982;52.344;12.990;2022-11-15T03:07:17;6.30;99.90
9662;DHT22;24982;52.344;12.990;2022-11-15T03:10:45;6.30;99.90
9662;DHT22;24982;52.344;12.990;2022-11-15T03:14:17;6.30;99.90
9662;DHT22;24982;52.344;12.990;2022-11-15T03:17:42;6.30;99.90
9662;DHT22;24982;52.344;12.990;2022-11-15T03:21:08;6.20;99.90
9662;DHT22;24982;52.344;12.990;2022-11-15T03:24:35;6.20;99.90
9662;DHT22;24982;52.344;12.990;2022-11-15T03:27:57;6.10;99.90
9662;DHT22;24982;52.344;12.990;2022-11-15T03:31:20;6.10;99.90
9662;DHT22;24982;52.344;12.990;2022-11-15T03:35:03;6.20;99.90
9662;DHT22;24982;52.344;12.990;2022-11-15T03:38:26;6.10;99.90
9662;DHT22;24982;52.344;12.990;2022-11-15T03:41:59;6.10;99.90
9662;DHT22;24982;52.344;12.990;2022-11-15T03:45:26;6.10;99.90
9662;DHT22;24982;52.344;12.990;2022-11-15T03:48:50;6.10;99.90
9662;DHT22;24982;52.344;12.990;2022-11-15T03:52:12;6.10;99.90
9662;DHT22;24982;52.344;12.990;2022-11-15T03:55:33;6.20;99.90
9662;DHT22;24982;52.344;12.990;2022-11-15T03:58:55;6.10;99.90
9662;DHT22;24982;52.344;12.990;2022-11-15T04:02:15;6.10;99.90
9662;DHT22;24982;52.344;12.990;2022-11-15T04:05:36;6.30;99.90
9662;DHT22;24982;52.344;12.990;2022-11-15T04:08:56;6.30;99.90
9662;DHT22;24982;52.344;12.990;2022-11-15T04:12:17;6.30;99.90
9662;DHT22;24982;52.344;12.990;2022-11-15T04:15:51;6.20;99.90
9662;DHT22;24982;52.344;12.990;2022-11-15T04:19:11;6.20;99.90
9662;DHT22;24982;52.344;12.990;2022-11-15T04:22:52;6.10;99.90
9662;DHT22;24982;52.344;12.990;2022-11-15T04:26:30;6.10;99.90
9662;DHT22;24982;52.344;12.990;2022-11-15T04:29:51;6.00;99.90
9662;DHT22;24982;52.344;12.990;2022-11-15T04:33:13;6.10;99.90
9662;DHT22;24982;52.344;12.990;2022-11-15T04:36:34;6.00;99.90
9662;DHT22;24982;52.344;12.990;2022-11-15T04:40:12;6.00;99.90
9662;DHT22;24982;52.344;12.990;2022-11-15T04:43:33;6.00;99.90
9662;DHT22;24982;52.344;12.990;2022-11-15T04:46:54;6.00;99.90
9662;DHT22;24982;52.344;12.990;2022-11-15T04:50:16;6.00;99.90
9662;DHT22;24982;52.344;12.990;2022-11-15T04:53:36;6.00;99.90
9662;DHT22;24982;52.344;12.990;2022-11-15T04:56:57;6.10;99.90
9662;DHT22;24982;52.344;12.990;2022-11-15T05:00:18;6.00;99.90
9662;DHT22;24982;52.344;12.990;2022-11-15T05:03:39;6.10;99.90
9662;DHT22;24982;52.344;12.990;2022-11-15T05:07:19;6.20;99.90
9662;DHT22;24982;52.344;12.990;2022-11-15T05:10:39;6.10;99.90
9662;DHT22;24982;52.344;12.990;2022-11-15T05:14:00;6.30;99.90
9662;DHT22;24982;52.344;12.990;2022-11-15T05:17:20;6.30;99.90
9662;DHT22;24982;52.344;12.990;2022-11-15T05:20:41;6.40;99.90
9662;DHT22;24982;52.344;12.990;2022-11-15T05:24:03;6.30;99.90
9662;DHT22;24982;52.344;12.990;2022-11-15T05:27:24;6.30;99.90
9662;DHT22;24982;52.344;12.990;2022-11-15T05:30:44;6.40;99.90
9662;DHT22;24982;52.344;12.990;2022-11-15T05:34:05;6.40;99.90
9662;DHT22;24982;52.344;12.990;2022-11-15T05:37:26;6.40;99.90
9662;DHT22;24982;52.344;12.990;2022-11-15T05:40:47;6.30;99.90
9662;DHT22;24982;52.344;12.990;2022-11-15T05:44:10;6.20;99.90
9662;DHT22;24982;52.344;12.990;2022-11-15T05:47:32;6.30;99.90
9662;DHT22;24982;52.344;12.990;2022-11-15T05:50:54;6.10;99.90
9662;DHT22;24982;52.344;12.990;2022-11-15T05:54:16;6.20;99.90
9662;DHT22;24982;52.344;12.990;2022-11-15T05:57:39;6.20;99.90
9662;DHT22;24982;52.344;12.990;2022-11-15T06:00:59;6.10;99.90
9662;DHT22;24982;52.344;12.990;2022-11-15T06:04:20;6.10;99.90
9662;DHT22;24982;52.344;12.990;2022-11-15T06:07:41;6.20;99.90
9662;DHT22;24982;52.344;12.990;2022-11-15T06:11:05;6.10;99.90
9662;DHT22;24982;52.344;12.990;2022-11-15T06:14:27;6.00;99.90
9662;DHT22;24982;52.344;12.990;2022-11-15T06:17:47;6.10;99.90
9662;DHT22;24982;52.344;12.990;2022-11-15T06:21:08;6.10;99.90
9662;DHT22;24982;52.344;12.990;2022-11-15T06:24:28;6.00;99.90
9662;DHT22;24982;52.344;12.990;2022-11-15T06:27:51;6.00;99.90
9662;DHT22;24982;52.344;12.990;2022-11-15T06:31:12;5.90;99.90
9662;DHT22;24982;52.344;12.990;2022-11-15T06:34:33;5.90;99.90
9662;DHT22;24982;52.344;12.990;2022-11-15T06:37:55;5.90;99.90
9662;DHT22;24982;52.344;12.990;2022-11-15T06:41:15;6.10;99.90
9662;DHT22;24982;52.344;12.990;2022-11-15T06:44:36;6.00;99.90
9662;DHT22;24982;52.344;12.990;2022-11-15T06:47:58;6.10;99.90
9662;DHT22;24982;52.344;12.990;2022-11-15T06:51:19;6.10;99.90
9662;DHT22;24982;52.344;12.990;2022-11-15T06:54:40;6.00;99.90
9662;DHT22;24982;52.344;12.990;2022-11-15T06:58:00;6.00;99.90
9662;DHT22;24982;52.344;12.990;2022-11-15T07:01:21;6.00;99.90
9662;DHT22;24982;52.344;12.990;2022-11-15T07:04:43;5.90;99.90
9662;DHT22;24982;52.344;12.990;2022-11-15T07:08:04;6.10;99.90
9662;DHT22;24982;52.344;12.990;2022-11-15T07:11:24;6.00;99.90
9662;DHT22;24982;52.344;12.990;2022-11-15T07:14:45;6.00;99.90
9662;DHT22;24982;52.344;12.990;2022-11-15T07:18:05;5.90;99.90
9662;DHT22;24982;52.344;12.990;2022-11-15T07:21:27;6.00;99.90
9662;DHT22;24982;52.344;12.990;2022-11-15T07:24:48;5.90;99.90
9662;DHT22;24982;52.344;12.990;2022-11-15T07:28:09;5.90;99.90
9662;DHT22;24982;52.344;12.990;2022-11-15T07:31:30;6.00;99.90
9662;DHT22;24982;52.344;12.990;2022-11-15T07:34:50;6.00;99.90
9662;DHT22;24982;52.344;12.990;2022-11-15T07:38:12;6.20;99.90
9662;DHT22;24982;52.344;12.990;2022-11-15T07:41:33;6.30;99.90
9662;DHT22;24982;52.344;12.990;2022-11-15T07:44:54;6.30;99.90
9662;DHT22;24982;52.344;12.990;2022-11-15T07:48:14;6.50;99.90
9662;DHT22;24982;52.344;12.990;2022-11-15T07:51:35;6.60;99.90
9662;DHT22;24982;52.344;12.990;2022-11-15T07:54:57;6.50;99.90
9662;DHT22;24982;52.344;12.990;2022-11-15T07:58:18;6.80;99.90
9662;DHT22;24982;52.344;12.990;2022-11-15T08:01:38;6.70;99.90
9662;DHT22;24982;52.344;12.990;2022-11-15T08:04:58;6.80;99.90
9662;DHT22;24982;52.344;12.990;2022-11-15T08:08:19;6.90;99.90
9662;DHT22;24982;52.344;12.990;2022-11-15T08:11:41;7.10;99.90
9662;DHT22;24982;52.344;12.990;2022-11-15T08:15:01;7.00;99.90
9662;DHT22;24982;52.344;12.990;2022-11-15T08:18:22;7.10;99.90
9662;DHT22;24982;52.344;12.990;2022-11-15T08:21:42;7.10;99.90
9662;DHT22;24982;52.344;12.990;2022-11-15T08:25:03;7.20;99.90
9662;DHT22;24982;52.344;12.990;2022-11-15T08:28:25;7.20;99.90
9662;DHT22;24982;52.344;12.990;2022-11-15T08:31:45;7.40;99.90
9662;DHT22;24982;52.344;12.990;2022-11-15T08:35:07;7.50;99.90
9662;DHT22;24982;52.344;12.990;2022-11-15T08:38:27;7.40;99.90
9662;DHT22;24982;52.344;12.990;2022-11-15T08:41:49;7.50;99.90
9662;DHT22;24982;52.344;12.990;2022-11-15T08:45:11;7.50;99.90
9662;DHT22;24982;52.344;12.990;2022-11-15T08:48:32;7.60;99.90
9662;DHT22;24982;52.344;12.990;2022-11-15T08:51:52;7.70;99.90
9662;DHT22;24982;52.344;12.990;2022-11-15T08:55:13;7.80;99.90
9662;DHT22;24982;52.344;12.990;2022-11-15T08:58:34;7.80;99.90
9662;DHT22;24982;52.344;12.990;2022-11-15T09:01:56;7.90;99.90
9662;DHT22;24982;52.344;12.990;2022-11-15T09:05:16;8.00;99.90
9662;DHT22;24982;52.344;12.990;2022-11-15T09:08:38;8.10;99.90
9662;DHT22;24982;52.344;12.990;2022-11-15T09:11:58;8.00;99.90
9662;DHT22;24982;52.344;12.990;2022-11-15T09:18:41;8.50;99.90
9662;DHT22;24982;52.344;12.990;2022-11-15T09:22:01;8.60;99.90
9662;DHT22;24982;52.344;12.990;2022-11-15T09:25:22;8.80;99.90
9662;DHT22;24982;52.344;12.990;2022-11-15T09:28:43;9.00;99.90
9662;DHT22;24982;52.344;12.990;2022-11-15T09:32:04;9.10;99.90
9662;DHT22;24982;52.344;12.990;2022-11-15T09:35:26;9.30;99.90
9662;DHT22;24982;52.344;12.990;2022-11-15T09:38:47;9.50;99.90
9662;DHT22;24982;52.344;12.990;2022-11-15T09:42:32;9.50;99.90
9662;DHT22;24982;52.344;12.990;2022-11-15T09:46:05;9.90;99.90
9662;DHT22;24982;52.344;12.990;2022-11-15T09:49:29;10.10;99.90
9662;DHT22;24982;52.344;12.990;2022-11-15T09:53:11;10.30;99.90
9662;DHT22;24982;52.344;12.990;2022-11-15T09:56:16;10.50;99.90
9662;DHT22;24982;52.344;12.990;2022-11-15T09:59:51;10.70;99.90
9662;DHT22;24982;52.344;12.990;2022-11-15T10:03:08;10.90;99.90
9662;DHT22;24982;52.344;12.990;2022-11-15T10:06:18;11.10;99.90
9662;DHT22;24982;52.344;12.990;2022-11-15T10:09:29;11.30;99.90
9662;DHT22;24982;52.344;12.990;2022-11-15T10:12:33;11.50;99.90
9662;DHT22;24982;52.344;12.990;2022-11-15T10:15:35;11.70;99.90
9662;DHT22;24982;52.344;12.990;2022-11-15T10:18:47;11.80;99.90
9662;DHT22;24982;52.344;12.990;2022-11-15T10:22:04;12.00;99.90
9662;DHT22;24982;52.344;12.990;2022-11-15T10:25:20;12.10;99.90
9662;DHT22;24982;52.344;12.990;2022-11-15T10:28:25;12.40;99.90
9662;DHT22;24982;52.344;12.990;2022-11-15T10:31:29;12.60;99.90
9662;DHT22;24982;52.344;12.990;2022-11-15T10:34:35;12.80;99.90
9662;DHT22;24982;52.344;12.990;2022-11-15T12:32:51;16.00;99.90
9662;DHT22;24982;52.344;12.990;2022-11-15T12:35:58;17.30;99.90
9662;DHT22;24982;52.344;12.990;2022-11-15T12:42:35;17.40;99.90
9662;DHT22;24982;52.344;12.990;2022-11-15T12:48:49;17.10;99.90
9662;DHT22;24982;52.344;12.990;2022-11-15T12:52:07;16.90;99.90
9662;DHT22;24982;52.344;12.990;2022-11-15T12:55:30;16.80;99.90
9662;DHT22;24982;52.344;12.990;2022-11-15T13:02:00;16.80;99.90
9662;DHT22;24982;52.344;12.990;2022-11-15T13:14:54;16.20;99.90
9662;DHT22;24982;52.344;12.990;2022-11-15T13:17:57;16.00;99.90
9662;DHT22;24982;52.344;12.990;2022-11-15T13:21:01;16.00;99.90
9662;DHT22;24982;52.344;12.990;2022-11-15T13:24:25;16.00;99.90
9662;DHT22;24982;52.344;12.990;2022-11-15T13:27:27;16.00;99.90
9662;DHT22;24982;52.344;12.990;2022-11-15T13:33:35;15.90;99.90
9662;DHT22;24982;52.344;12.990;2022-11-15T13:42:42;15.80;99.90
9662;DHT22;24982;52.344;12.990;2022-11-15T13:48:52;15.20;99.90
9662;DHT22;24982;52.344;12.990;2022-11-15T13:51:55;14.90;99.90
9662;DHT22;24982;52.344;12.990;2022-11-15T14:01:11;14.70;99.90
9662;DHT22;24982;52.344;12.990;2022-11-15T14:04:19;14.30;99.90
9662;DHT22;24982;52.344;12.990;2022-11-15T14:07:23;14.00;99.90
9662;DHT22;24982;52.344;12.990;2022-11-15T14:10:29;13.70;99.90
9662;DHT22;24982;52.344;12.990;2022-11-15T14:13:31;13.40;99.90
9662;DHT22;24982;52.344;12.990;2022-11-15T14:16:35;13.10;99.90
9662;DHT22;24982;52.344;12.990;2022-11-15T14:22:51;12.90;99.90
9662;DHT22;24982;52.344;12.990;2022-11-15T14:25:54;12.50;99.90
9662;DHT22;24982;52.344;12.990;2022-11-15T14:53:30;12.10;99.90
9662;DHT22;24982;52.344;12.990;2022-11-15T14:56:32;11.00;99.90
9662;DHT22;24982;52.344;12.990;2022-11-15T14:59:34;10.90;99.90
9662;DHT22;24982;52.344;12.990;2022-11-15T15:02:36;10.80;99.90
9662;DHT22;24982;52.344;12.990;2022-11-15T15:05:42;10.60;99.90
9662;DHT22;24982;52.344;12.990;2022-11-15T15:11:48;10.50;99.90
9662;DHT22;24982;52.344;12.990;2022-11-15T15:14:50;10.30;99.90
9662;DHT22;24982;52.344;12.990;2022-11-15T15:20:57;10.20;99.90
9662;DHT22;24982;52.344;12.990;2022-11-15T15:27:02;9.90;99.90
9662;DHT22;24982;52.344;12.990;2022-11-15T15:30:05;9.80;99.90
9662;DHT22;24982;52.344;12.990;2022-11-15T15:33:07;9.70;99.90
9662;DHT22;24982;52.344;12.990;2022-11-15T15:36:13;9.60;99.90
9662;DHT22;24982;52.344;12.990;2022-11-15T15:39:15;9.50;99.90
9662;DHT22;24982;52.344;12.990;2022-11-15T15:42:18;9.50;99.90
9662;DHT22;24982;52.344;12.990;2022-11-15T15:45:20;9.40;99.90
9662;DHT22;24982;52.344;12.990;2022-11-15T15:51:26;9.20;99.90
9662;DHT22;24982;52.344;12.990;2022-11-15T16:03:35;8.80;99.90
9662;DHT22;24982;52.344;12.990;2022-11-15T16:09:44;8.60;99.90
9662;DHT22;24982;52.344;12.990;2022-11-15T16:19:09;8.50;99.90
9662;DHT22;24982;52.344;12.990;2022-11-15T16:22:13;8.30;99.90
9662;DHT22;24982;52.344;12.990;2022-11-15T16:25:15;8.30;99.90
9662;DHT22;24982;52.344;12.990;2022-11-15T16:28:19;8.20;99.90
9662;DHT22;24982;52.344;12.990;2022-11-15T16:31:21;8.20;99.90
9662;DHT22;24982;52.344;12.990;2022-11-15T16:34:23;8.20;99.90
9662;DHT22;24982;52.344;12.990;2022-11-15T16:37:27;8.20;99.90
9662;DHT22;24982;52.344;12.990;2022-11-15T16:40:30;8.20;99.90
9662;DHT22;24982;52.344;12.990;2022-11-15T16:43:33;8.20;99.90
9662;DHT22;24982;52.344;12.990;2022-11-15T16:46:34;8.10;99.90
9662;DHT22;24982;52.344;12.990;2022-11-15T16:49:36;8.10;99.90
9662;DHT22;24982;52.344;12.990;2022-11-15T16:55:42;8.10;99.90
9662;DHT22;24982;52.344;12.990;2022-11-15T16:58:44;8.10;99.90
9662;DHT22;24982;52.344;12.990;2022-11-15T17:01:46;8.10;99.90
9662;DHT22;24982;52.344;12.990;2022-11-15T17:04:52;8.10;99.90
9662;DHT22;24982;52.344;12.990;2022-11-15T17:07:55;8.10;99.90
9662;DHT22;24982;52.344;12.990;2022-11-15T17:10:57;8.10;99.90
9662;DHT22;24982;52.344;12.990;2022-11-15T17:14:00;8.10;99.90
9662;DHT22;24982;52.344;12.990;2022-11-15T17:17:02;8.10;99.90
9662;DHT22;24982;52.344;12.990;2022-11-15T17:20:05;8.00;99.90
9662;DHT22;24982;52.344;12.990;2022-11-15T17:23:13;8.00;99.90
9662;DHT22;24982;52.344;12.990;2022-11-15T17:26:15;8.00;99.90
9662;DHT22;24982;52.344;12.990;2022-11-15T17:29:17;8.00;99.90
9662;DHT22;24982;52.344;12.990;2022-11-15T17:32:19;8.00;99.90
9662;DHT22;24982;52.344;12.990;2022-11-15T17:35:21;8.00;99.90
9662;DHT22;24982;52.344;12.990;2022-11-15T17:38:25;8.00;99.90
9662;DHT22;24982;52.344;12.990;2022-11-15T17:41:28;8.00;99.90
9662;DHT22;24982;52.344;12.990;2022-11-15T17:44:30;8.00;99.90
9662;DHT22;24982;52.344;12.990;2022-11-15T17:47:33;8.00;99.90
